createdAt,value
2023-05-19T00:02:18.441Z,78.23
2023-05-19T00:17:18.287Z,78.47
2023-05-19T00:32:18.105Z,78.51
2023-05-19T00:47:17.898Z,78.96
2023-05-19T01:02:17.729Z,80.33
2023-05-19T01:17:17.896Z,81.51
2023-05-19T01:32:17.475Z,82.40
2023-05-19T01:47:17.364Z,83.58
2023-05-19T02:02:17.104Z,84.81
2023-05-19T02:17:16.937Z,84.55
2023-05-19T02:32:16.874Z,83.78
2023-05-19T02:47:16.615Z,84.30
2023-05-19T03:02:16.461Z,83.03
2023-05-19T03:17:16.332Z,82.92
2023-05-19T03:32:16.244Z,82.37
2023-05-19T03:47:16.047Z,82.12
2023-05-19T04:02:16.735Z,82.43
2023-05-19T04:17:15.717Z,81.95
2023-05-19T04:32:15.563Z,80.43
2023-05-19T04:47:15.408Z,78.92
2023-05-19T05:02:15.309Z,78.78
2023-05-19T05:17:15.112Z,78.02
2023-05-19T05:32:14.961Z,76.72
2023-05-19T05:47:14.807Z,72.75
2023-05-19T06:02:14.655Z,70.54
2023-05-19T06:17:14.460Z,62.82
2023-05-19T06:32:14.308Z,55.37
2023-05-19T06:47:14.185Z,56.48
2023-05-19T07:02:14.206Z,56.02
2023-05-19T07:17:13.907Z,56.30
2023-05-19T07:32:13.732Z,53.60
2023-05-19T07:47:15.348Z,50.40
2023-05-19T08:02:13.400Z,50.96
2023-05-19T08:17:13.183Z,48.17
2023-05-19T08:32:13.404Z,48.05
2023-05-19T08:47:12.919Z,46.73
2023-05-19T09:02:12.687Z,43.72
2023-05-19T09:17:12.568Z,42.32
2023-05-19T09:32:12.475Z,43.02
2023-05-19T09:47:17.331Z,42.72
2023-05-19T10:02:13.324Z,42.92
2023-05-19T10:17:12.470Z,42.27
2023-05-19T10:32:11.882Z,44.85
2023-05-19T10:47:13.827Z,43.10
2023-05-19T11:02:15.964Z,44.45
2023-05-19T11:17:20.695Z,42.11
2023-05-19T11:32:15.169Z,42.52
2023-05-19T11:47:12.332Z,39.04
2023-05-19T12:02:11.156Z,40.83
2023-05-19T12:17:10.810Z,40.39
2023-05-19T12:32:10.570Z,41.63
2023-05-19T12:47:12.771Z,41.65
2023-05-19T13:02:10.350Z,38.31
2023-05-19T13:17:10.063Z,39.76
2023-05-19T13:32:10.881Z,43.46
2023-05-19T13:47:09.703Z,45.00
2023-05-19T14:02:09.687Z,44.49
2023-05-19T14:17:09.470Z,44.04
2023-05-19T14:32:09.217Z,44.37
2023-05-19T14:47:09.056Z,43.84
2023-05-19T15:02:08.900Z,45.29
2023-05-19T15:17:08.712Z,44.49
2023-05-19T15:32:08.558Z,44.23
2023-05-19T15:47:08.500Z,45.26
2023-05-19T16:02:08.312Z,47.40
2023-05-19T16:17:08.077Z,45.76
2023-05-19T16:32:08.248Z,43.42
2023-05-19T16:47:07.767Z,45.66
2023-05-19T17:02:08.287Z,47.72
2023-05-19T17:17:07.558Z,48.25
2023-05-19T17:32:07.504Z,48.65
2023-05-19T17:47:07.339Z,48.30
2023-05-19T18:02:07.647Z,49.02
2023-05-19T18:17:06.889Z,50.89
2023-05-19T18:32:07.480Z,53.05
2023-05-19T18:47:06.769Z,55.19
2023-05-19T19:02:14.012Z,57.37
2023-05-19T19:17:07.133Z,59.46
2023-05-19T19:32:06.617Z,61.11
2023-05-19T19:47:06.988Z,62.79
2023-05-19T20:02:05.736Z,63.64
2023-05-19T20:17:05.503Z,65.80
2023-05-19T20:32:05.338Z,67.80
2023-05-19T20:47:05.186Z,68.85
2023-05-19T21:02:05.042Z,71.46
2023-05-19T21:17:04.936Z,72.96
2023-05-19T21:32:04.716Z,73.71
2023-05-19T21:47:04.545Z,75.37
2023-05-19T22:02:04.396Z,75.68
2023-05-19T22:17:04.213Z,75.27
2023-05-19T22:32:04.044Z,76.03
2023-05-19T22:47:03.892Z,76.47
2023-05-19T23:02:03.762Z,77.19
2023-05-19T23:17:03.622Z,78.04
2023-05-19T23:32:03.533Z,78.55
2023-05-19T23:47:03.372Z,79.50
